createdAt,value
2022-12-27T00:00:55.107Z,-5.20
2022-12-27T00:03:22.353Z,-5.20
2022-12-27T00:05:49.458Z,-5.13
2022-12-27T00:08:16.904Z,-5.10
2022-12-27T00:10:44.129Z,-5.35
2022-12-27T00:13:11.323Z,-5.46
2022-12-27T00:15:38.292Z,-5.31
2022-12-27T00:18:05.502Z,-5.43
2022-12-27T00:20:32.609Z,-5.59
2022-12-27T00:23:01.376Z,-5.60
2022-12-27T00:25:28.732Z,-5.41
2022-12-27T00:27:55.727Z,-5.26
2022-12-27T00:30:22.785Z,-5.27
2022-12-27T00:32:49.839Z,-5.17
2022-12-27T00:35:16.898Z,-4.95
2022-12-27T00:37:43.949Z,-4.74
2022-12-27T00:40:11.539Z,-4.54
2022-12-27T00:42:39.727Z,-4.61
2022-12-27T00:45:07.382Z,-4.77
2022-12-27T00:47:34.438Z,-4.83
2022-12-27T00:50:01.585Z,-4.85
2022-12-27T00:52:28.667Z,-4.83
2022-12-27T00:54:55.628Z,-4.96
2022-12-27T00:57:22.669Z,-5.16
2022-12-27T00:59:49.707Z,-5.18
2022-12-27T01:02:16.799Z,-5.11
2022-12-27T01:04:44.747Z,-5.13
2022-12-27T01:07:11.769Z,-5.16
2022-12-27T01:09:38.753Z,-5.10
2022-12-27T01:12:05.851Z,-5.02
2022-12-27T01:14:33.242Z,-4.91
2022-12-27T01:17:00.429Z,-4.96
2022-12-27T01:19:27.432Z,-4.91
2022-12-27T01:21:54.535Z,-4.70
2022-12-27T01:24:21.558Z,-4.63
2022-12-27T01:26:48.617Z,-4.73
2022-12-27T01:29:15.716Z,-4.67
2022-12-27T01:31:42.859Z,-4.72
2022-12-27T01:34:09.862Z,-4.75
2022-12-27T01:36:37.013Z,-4.81
2022-12-27T01:39:04.378Z,-4.83
2022-12-27T01:41:53.832Z,-4.95
2022-12-27T01:44:49.543Z,-4.83
2022-12-27T01:47:40.933Z,-4.68
2022-12-27T01:50:31.173Z,-4.73
2022-12-27T01:53:15.204Z,-4.58
2022-12-27T01:55:54.277Z,-4.54
2022-12-27T01:58:53.154Z,-4.83
2022-12-27T02:01:23.836Z,-4.75
2022-12-27T02:03:57.588Z,-4.90
2022-12-27T02:06:27.033Z,-4.83
2022-12-27T02:09:03.449Z,-4.59
2022-12-27T02:11:51.420Z,-4.70
2022-12-27T02:14:44.505Z,-4.74
2022-12-27T02:17:26.193Z,-4.77
2022-12-27T02:20:05.277Z,-4.82
2022-12-27T02:23:27.829Z,-4.65
2022-12-27T02:26:48.583Z,-4.84
2022-12-27T02:29:40.045Z,-4.82
2022-12-27T02:32:48.624Z,-4.71
2022-12-27T02:35:23.680Z,-4.91
2022-12-27T02:38:19.766Z,-4.99
2022-12-27T02:41:05.771Z,-4.87
2022-12-27T02:43:51.854Z,-4.95
2022-12-27T02:46:43.543Z,-4.96
2022-12-27T02:49:53.484Z,-4.76
2022-12-27T02:52:53.594Z,-4.60
2022-12-27T02:56:24.329Z,-4.60
2022-12-27T02:59:12.799Z,-4.48
2022-12-27T03:02:26.132Z,-4.39
2022-12-27T03:05:39.640Z,-4.51
2022-12-27T03:08:16.989Z,-4.45
2022-12-27T03:11:19.655Z,-4.47
2022-12-27T03:14:19.091Z,-4.42
2022-12-27T03:16:59.856Z,-4.26
2022-12-27T03:19:51.571Z,-4.35
2022-12-27T03:22:40.430Z,-4.57
2022-12-27T03:25:26.473Z,-4.54
2022-12-27T03:28:17.062Z,-4.60
2022-12-27T03:31:05.557Z,-4.78
2022-12-27T03:33:36.551Z,-4.95
2022-12-27T03:36:35.750Z,-4.94
2022-12-27T03:39:09.411Z,-4.87
2022-12-27T03:42:01.306Z,-4.84
2022-12-27T03:44:28.589Z,-5.03
2022-12-27T03:47:22.657Z,-5.04
2022-12-27T03:50:25.976Z,-4.94
2022-12-27T03:53:01.830Z,-4.88
2022-12-27T03:55:33.298Z,-5.07
2022-12-27T03:58:01.048Z,-5.01
2022-12-27T04:00:28.179Z,-5.02
2022-12-27T04:02:55.746Z,-5.08
2022-12-27T04:05:22.919Z,-4.89
2022-12-27T04:08:08.586Z,-4.85
2022-12-27T04:10:54.267Z,-5.05
2022-12-27T04:13:39.918Z,-4.91
2022-12-27T04:16:26.103Z,-5.15
2022-12-27T04:19:11.711Z,-5.00
2022-12-27T04:21:57.108Z,-5.25
2022-12-27T04:24:42.838Z,-5.28
2022-12-27T04:27:28.615Z,-5.19
2022-12-27T04:30:14.329Z,-5.14
2022-12-27T04:32:59.803Z,-4.96
2022-12-27T04:35:27.009Z,-4.93
2022-12-27T04:37:54.118Z,-5.11
2022-12-27T04:40:40.311Z,-5.10
2022-12-27T04:50:45.034Z,-5.03
2022-12-27T04:53:42.270Z,-5.00
2022-12-27T05:09:36.301Z,-5.02
2022-12-27T05:21:17.965Z,-4.98
2022-12-27T05:24:05.808Z,-5.03
2022-12-27T05:26:33.804Z,-5.30
2022-12-27T05:29:01.891Z,-5.26
2022-12-27T05:31:29.922Z,-5.19
2022-12-27T05:33:58.036Z,-5.12
2022-12-27T05:36:25.737Z,-4.95
2022-12-27T05:38:52.837Z,-4.77
2022-12-27T05:41:20.004Z,-5.03
2022-12-27T05:43:47.189Z,-4.81
2022-12-27T05:46:16.764Z,-4.87
2022-12-27T05:48:43.866Z,-4.71
2022-12-27T05:51:17.134Z,-4.95
2022-12-27T05:53:45.381Z,-4.93
2022-12-27T05:56:16.101Z,-4.79
2022-12-27T05:58:43.925Z,-4.67
2022-12-27T06:01:13.059Z,-4.66
2022-12-27T06:03:40.457Z,-4.70
2022-12-27T06:06:09.588Z,-4.84
2022-12-27T06:08:37.462Z,-4.79
2022-12-27T06:11:13.750Z,-4.78
2022-12-27T06:13:42.817Z,-4.77
2022-12-27T06:16:12.168Z,-4.68
2022-12-27T06:18:41.042Z,-4.83
2022-12-27T06:21:13.137Z,-4.79
2022-12-27T06:23:42.400Z,-4.66
2022-12-27T06:26:24.729Z,-4.60
2022-12-27T06:28:52.643Z,-4.69
2022-12-27T06:31:20.704Z,-4.74
2022-12-27T06:33:49.173Z,-4.82
2022-12-27T06:36:19.438Z,-4.75
2022-12-27T06:38:46.818Z,-4.77
2022-12-27T06:41:17.550Z,-4.80
2022-12-27T06:43:45.155Z,-4.88
2022-12-27T06:46:18.831Z,-4.98
2022-12-27T06:48:47.656Z,-4.93
2022-12-27T06:51:16.999Z,-4.95
2022-12-27T06:53:47.327Z,-4.92
2022-12-27T06:56:19.683Z,-5.28
2022-12-27T06:58:48.332Z,-5.16
2022-12-27T07:01:18.308Z,-5.18
2022-12-27T07:03:49.943Z,-5.20
2022-12-27T07:06:17.558Z,-5.16
2022-12-27T07:08:45.580Z,-5.01
2022-12-27T07:11:13.691Z,-4.71
2022-12-27T07:13:44.597Z,-4.84
2022-12-27T07:16:14.426Z,-4.89
2022-12-27T07:18:42.001Z,-4.71
2022-12-27T07:21:11.866Z,-4.67
2022-12-27T07:23:38.889Z,-4.93
2022-12-27T07:26:10.385Z,-4.93
2022-12-27T07:28:38.245Z,-4.91
2022-12-27T07:31:10.706Z,-4.83
2022-12-27T07:33:38.531Z,-4.72
2022-12-27T07:36:09.069Z,-4.63
2022-12-27T07:38:36.411Z,-4.59
2022-12-27T07:41:04.042Z,-4.50
2022-12-27T07:43:33.966Z,-4.38
2022-12-27T07:46:27.404Z,-4.42
2022-12-27T07:48:55.971Z,-4.59
2022-12-27T07:51:24.317Z,-4.54
2022-12-27T07:53:51.993Z,-4.65
2022-12-27T07:56:27.882Z,-4.51
2022-12-27T07:58:57.453Z,-4.47
2022-12-27T08:01:26.768Z,-4.56
2022-12-27T08:03:53.829Z,-4.66
2022-12-27T08:06:23.933Z,-4.43
2022-12-27T08:08:52.242Z,-4.52
2022-12-27T08:11:19.743Z,-4.57
2022-12-27T08:13:47.086Z,-4.59
2022-12-27T08:16:20.126Z,-4.52
2022-12-27T08:18:47.275Z,-4.52
2022-12-27T08:21:16.311Z,-4.43
2022-12-27T08:23:43.511Z,-4.57
2022-12-27T08:26:10.879Z,-4.63
2022-12-27T08:28:38.073Z,-4.69
2022-12-27T08:31:10.203Z,-4.67
2022-12-27T08:33:37.909Z,-4.61
2022-12-27T08:36:22.370Z,-4.60
2022-12-27T08:38:55.416Z,-4.72
2022-12-27T08:41:23.403Z,-4.68
2022-12-27T08:43:50.475Z,-4.59
2022-12-27T08:46:19.889Z,-4.48
2022-12-27T08:48:51.709Z,-4.54
2022-12-27T08:51:31.373Z,-4.52
2022-12-27T08:54:00.568Z,-4.39
2022-12-27T08:56:27.735Z,-4.31
2022-12-27T08:58:54.838Z,-4.18
2022-12-27T09:01:22.617Z,-4.32
2022-12-27T09:03:49.843Z,-4.31
2022-12-27T09:06:22.618Z,-4.30
2022-12-27T09:08:51.092Z,-4.10
2022-12-27T09:11:22.879Z,-4.17
2022-12-27T09:13:50.536Z,-4.38
2022-12-27T09:16:20.897Z,-4.44
2022-12-27T09:18:50.082Z,-4.38
2022-12-27T09:21:18.214Z,-4.31
2022-12-27T09:23:45.942Z,-4.48
2022-12-27T09:26:16.168Z,-4.50
2022-12-27T09:28:43.846Z,-4.37
2022-12-27T09:31:12.624Z,-4.39
2022-12-27T09:33:40.683Z,-4.30
2022-12-27T09:36:13.471Z,-4.24
2022-12-27T09:38:41.656Z,-4.00
2022-12-27T09:41:19.238Z,-4.07
2022-12-27T09:43:56.136Z,-3.92
2022-12-27T09:46:46.800Z,-3.92
2022-12-27T09:49:36.875Z,-3.92
2022-12-27T09:52:12.445Z,-4.14
2022-12-27T09:54:53.103Z,-4.13
2022-12-27T09:57:26.938Z,-4.10
2022-12-27T09:59:58.811Z,-4.19
2022-12-27T10:02:28.592Z,-3.94
2022-12-27T10:07:52.104Z,-4.34
2022-12-27T10:10:53.436Z,-4.25
2022-12-27T10:13:26.599Z,-4.22
2022-12-27T10:16:11.802Z,-4.02
2022-12-27T10:19:00.441Z,-4.08
2022-12-27T10:21:29.647Z,-4.09
2022-12-27T10:24:22.850Z,-4.08
2022-12-27T10:26:51.547Z,-4.07
2022-12-27T10:29:24.148Z,-3.90
2022-12-27T10:31:51.524Z,-3.94
2022-12-27T10:34:24.761Z,-3.84
2022-12-27T10:36:53.556Z,-3.86
2022-12-27T10:39:27.308Z,-3.98
2022-12-27T10:42:13.091Z,-3.82
2022-12-27T10:44:40.192Z,-4.01
2022-12-27T10:47:07.558Z,-3.97
2022-12-27T10:49:39.456Z,-3.85
2022-12-27T10:52:09.959Z,-3.80
2022-12-27T10:54:51.363Z,-3.77
2022-12-27T10:57:38.725Z,-3.68
2022-12-27T11:00:20.659Z,-3.65
2022-12-27T11:02:56.522Z,-3.68
2022-12-27T11:05:26.322Z,-3.69
2022-12-27T11:07:53.894Z,-3.55
2022-12-27T11:10:27.580Z,-3.61
2022-12-27T11:13:06.193Z,-3.53
2022-12-27T11:15:38.638Z,-3.57
2022-12-27T11:18:16.993Z,-3.56
2022-12-27T11:20:47.398Z,-3.58
2022-12-27T11:23:18.539Z,-3.53
2022-12-27T11:26:01.786Z,-3.46
2022-12-27T11:28:44.841Z,-3.53
2022-12-27T11:31:15.592Z,-3.54
2022-12-27T11:33:47.340Z,-3.51
2022-12-27T11:36:24.371Z,-3.48
2022-12-27T11:38:51.665Z,-3.55
2022-12-27T11:41:40.633Z,-3.61
2022-12-27T11:44:13.747Z,-3.50
2022-12-27T11:46:55.517Z,-3.51
2022-12-27T11:49:37.196Z,-3.67
2022-12-27T11:52:16.836Z,-3.62
2022-12-27T11:55:01.764Z,-3.69
2022-12-27T11:57:48.002Z,-3.56
2022-12-27T12:00:24.905Z,-3.46
2022-12-27T12:03:27.285Z,-3.49
2022-12-27T12:06:09.515Z,-3.34
2022-12-27T12:08:48.808Z,-3.31
2022-12-27T12:11:31.438Z,-3.32
2022-12-27T12:14:38.191Z,-3.25
2022-12-27T12:17:36.328Z,-3.49
2022-12-27T12:20:31.837Z,-3.37
2022-12-27T12:23:13.307Z,-3.33
2022-12-27T12:26:00.112Z,-3.33
2022-12-27T12:28:57.682Z,-3.33
2022-12-27T12:32:04.200Z,-3.19
2022-12-27T12:35:16.178Z,-3.33
2022-12-27T12:38:04.230Z,-3.47
2022-12-27T12:41:03.062Z,-3.30
2022-12-27T12:43:42.271Z,-3.36
2022-12-27T12:46:27.483Z,-3.48
2022-12-27T12:49:19.493Z,-3.26
2022-12-27T12:52:20.562Z,-3.20
2022-12-27T12:55:12.838Z,-3.22
2022-12-27T12:57:42.985Z,-3.27
2022-12-27T13:00:25.430Z,-3.14
2022-12-27T13:03:13.581Z,-3.03
2022-12-27T13:06:02.565Z,-3.02
2022-12-27T13:08:36.782Z,-3.02
2022-12-27T13:11:08.980Z,-2.96
2022-12-27T13:14:05.742Z,-3.04
2022-12-27T13:17:09.888Z,-3.06
2022-12-27T13:19:39.774Z,-3.08
2022-12-27T13:22:25.171Z,-3.16
2022-12-27T13:25:11.197Z,-3.10
2022-12-27T13:27:45.740Z,-3.08
2022-12-27T13:30:22.962Z,-3.10
2022-12-27T13:32:59.077Z,-3.07
2022-12-27T13:35:45.085Z,-3.09
2022-12-27T13:38:33.281Z,-3.01
2022-12-27T13:41:30.998Z,-2.84
2022-12-27T13:44:31.770Z,-2.88
2022-12-27T13:47:23.601Z,-2.84
2022-12-27T13:49:59.511Z,-2.90
2022-12-27T13:52:59.746Z,-2.75
2022-12-27T13:55:49.150Z,-2.69
2022-12-27T13:58:48.516Z,-2.67
2022-12-27T14:01:30.763Z,-2.73
2022-12-27T14:04:33.448Z,-2.75
2022-12-27T14:07:25.123Z,-2.68
2022-12-27T14:10:27.900Z,-2.50
2022-12-27T14:12:58.025Z,-2.51
2022-12-27T14:15:48.609Z,-2.64
2022-12-27T14:19:13.975Z,-2.56
2022-12-27T14:22:10.285Z,-2.60
2022-12-27T14:25:14.165Z,-2.49
2022-12-27T14:27:44.465Z,-2.56
2022-12-27T14:30:30.140Z,-2.43
2022-12-27T14:33:21.959Z,-2.50
2022-12-27T14:36:15.504Z,-2.37
2022-12-27T14:39:04.283Z,-2.33
2022-12-27T14:41:46.553Z,-2.29
2022-12-27T14:44:49.001Z,-2.29
2022-12-27T14:47:28.999Z,-2.29
2022-12-27T14:50:18.150Z,-2.18
2022-12-27T14:53:11.092Z,-2.01
2022-12-27T14:56:16.639Z,-1.94
2022-12-27T14:58:51.321Z,-2.02
2022-12-27T15:01:43.875Z,-2.02
2022-12-27T15:04:32.557Z,-2.06
2022-12-27T15:07:22.073Z,-2.14
2022-12-27T15:10:07.569Z,-2.14
2022-12-27T15:12:53.646Z,-2.10
2022-12-27T15:15:20.861Z,-2.05
2022-12-27T15:18:10.809Z,-2.03
2022-12-27T15:20:56.208Z,-2.17
2022-12-27T15:23:47.906Z,-2.06
2022-12-27T15:26:48.359Z,-2.01
2022-12-27T15:29:28.479Z,-2.01
2022-12-27T15:32:20.106Z,-1.91
2022-12-27T15:35:06.447Z,-1.78
2022-12-27T15:37:48.661Z,-1.93
2022-12-27T15:40:32.856Z,-1.91
2022-12-27T15:43:15.073Z,-1.91
2022-12-27T15:46:19.593Z,-1.82
2022-12-27T15:48:53.787Z,-1.77
2022-12-27T15:51:39.777Z,-1.65
2022-12-27T15:54:06.898Z,-1.52
2022-12-27T15:56:49.752Z,-1.58
2022-12-27T15:59:34.807Z,-1.85
2022-12-27T16:02:17.319Z,-1.72
2022-12-27T16:04:48.968Z,-1.50
2022-12-27T16:07:35.926Z,-1.51
2022-12-27T16:10:31.035Z,-1.48
2022-12-27T16:12:58.006Z,-1.52
2022-12-27T16:15:52.896Z,-1.59
2022-12-27T16:18:20.803Z,-1.60
2022-12-27T16:21:05.475Z,-1.68
2022-12-27T16:23:37.515Z,-1.70
2022-12-27T16:26:10.647Z,-1.75
2022-12-27T16:28:38.211Z,-1.62
2022-12-27T16:31:12.785Z,-1.54
2022-12-27T16:33:42.929Z,-1.52
2022-12-27T16:36:13.288Z,-1.29
2022-12-27T16:39:12.041Z,-1.25
2022-12-27T16:41:54.237Z,-1.27
2022-12-27T16:44:24.175Z,-1.29
2022-12-27T16:47:02.201Z,-1.26
2022-12-27T16:49:51.575Z,-1.09
2022-12-27T16:52:37.543Z,-1.06
2022-12-27T16:55:34.040Z,-1.13
2022-12-27T16:58:33.820Z,-1.11
2022-12-27T17:01:29.992Z,-1.03
2022-12-27T17:03:58.322Z,-1.10
2022-12-27T17:06:32.976Z,-1.13
2022-12-27T17:09:10.443Z,-1.11
2022-12-27T17:11:46.721Z,-0.97
2022-12-27T17:14:28.204Z,-0.88
2022-12-27T17:16:59.145Z,-0.86
2022-12-27T17:19:53.712Z,-0.83
2022-12-27T17:22:21.762Z,-0.91
2022-12-27T17:24:49.617Z,-0.95
2022-12-27T17:27:35.103Z,-0.85
2022-12-27T17:30:37.035Z,-0.95
2022-12-27T17:33:09.846Z,-0.98
2022-12-27T17:35:55.536Z,-0.97
2022-12-27T17:38:40.816Z,-0.89
2022-12-27T17:41:57.073Z,-0.91
2022-12-27T17:44:47.003Z,-0.93
2022-12-27T17:47:15.816Z,-0.88
2022-12-27T17:49:43.674Z,-1.01
2022-12-27T17:52:36.037Z,-1.12
2022-12-27T17:55:39.297Z,-1.01
2022-12-27T17:58:18.938Z,-0.99
2022-12-27T18:00:51.778Z,-0.99
2022-12-27T18:03:18.988Z,-0.88
2022-12-27T18:05:47.537Z,-0.76
2022-12-27T18:08:18.986Z,-0.81
2022-12-27T18:10:46.156Z,-0.78
2022-12-27T18:13:18.868Z,-0.77
2022-12-27T18:15:48.726Z,-0.87
2022-12-27T18:18:32.723Z,-0.69
2022-12-27T18:21:02.479Z,-0.70
2022-12-27T18:23:29.980Z,-0.66
2022-12-27T18:26:10.708Z,-0.71
2022-12-27T18:28:40.845Z,-0.78
2022-12-27T18:31:14.220Z,-0.81
2022-12-27T18:33:51.463Z,-0.66
2022-12-27T18:36:37.081Z,-0.63
2022-12-27T18:39:15.507Z,-0.86
2022-12-27T18:41:50.003Z,-0.73
2022-12-27T18:44:27.587Z,-0.86
2022-12-27T18:47:04.339Z,-0.71
2022-12-27T18:49:34.848Z,-0.75
2022-12-27T18:52:11.293Z,-0.79
2022-12-27T18:54:38.551Z,-0.89
2022-12-27T18:57:24.949Z,-0.86
2022-12-27T19:00:25.499Z,-0.80
2022-12-27T19:02:54.852Z,-0.69
2022-12-27T19:05:21.993Z,-0.82
2022-12-27T19:08:00.825Z,-0.77
2022-12-27T19:10:30.964Z,-0.82
2022-12-27T19:12:59.043Z,-0.93
2022-12-27T19:15:41.658Z,-0.81
2022-12-27T19:18:22.577Z,-0.74
2022-12-27T19:21:01.313Z,-0.68
2022-12-27T19:23:30.187Z,-0.68
2022-12-27T19:26:05.292Z,-0.72
2022-12-27T19:28:33.345Z,-0.75
2022-12-27T19:31:21.875Z,-0.77
2022-12-27T19:33:56.126Z,-0.70
2022-12-27T19:36:32.794Z,-0.56
2022-12-27T19:39:00.794Z,-0.66
2022-12-27T19:41:29.156Z,-0.65
2022-12-27T19:43:56.706Z,-0.56
2022-12-27T19:46:30.843Z,-0.53
2022-12-27T19:51:46.421Z,-0.48
2022-12-27T19:54:18.155Z,-0.47
2022-12-27T19:56:45.975Z,-0.50
2022-12-27T19:59:17.462Z,-0.47
2022-12-27T20:01:45.809Z,-0.38
2022-12-27T20:04:14.644Z,-0.36
2022-12-27T20:06:42.667Z,-0.32
2022-12-27T20:09:14.121Z,-0.31
2022-12-27T20:11:41.339Z,-0.26
2022-12-27T20:14:08.405Z,-0.20
2022-12-27T20:16:35.618Z,-0.25
2022-12-27T20:19:03.194Z,-0.30
2022-12-27T20:21:30.389Z,-0.41
2022-12-27T20:23:57.490Z,-0.36
2022-12-27T20:26:25.802Z,-0.30
2022-12-27T20:28:53.593Z,-0.23
2022-12-27T20:31:21.985Z,-0.28
2022-12-27T20:33:56.420Z,-0.23
2022-12-27T20:36:24.455Z,-0.24
2022-12-27T20:38:51.737Z,-0.11
2022-12-27T20:41:20.858Z,-0.07
2022-12-27T20:43:48.131Z,-0.23
2022-12-27T20:46:18.855Z,-0.39
2022-12-27T20:48:47.305Z,-0.35
2022-12-27T20:51:17.820Z,-0.29
2022-12-27T20:53:46.995Z,-0.33
2022-12-27T20:56:14.296Z,-0.40
2022-12-27T20:58:42.056Z,-0.24
2022-12-27T21:01:19.128Z,-0.19
2022-12-27T21:03:46.890Z,-0.17
2022-12-27T21:06:17.246Z,-0.25
2022-12-27T21:08:49.222Z,-0.21
2022-12-27T21:11:27.259Z,-0.14
2022-12-27T21:13:55.524Z,-0.10
2022-12-27T21:16:25.082Z,-0.15
2022-12-27T21:18:53.059Z,-0.12
2022-12-27T21:21:27.386Z,-0.13
2022-12-27T21:23:56.385Z,-0.10
2022-12-27T21:26:26.664Z,0.03
2022-12-27T21:28:55.020Z,-0.06
2022-12-27T21:31:23.019Z,-0.08
2022-12-27T21:33:50.427Z,-0.10
2022-12-27T21:36:21.244Z,-0.06
2022-12-27T21:38:49.563Z,-0.11
2022-12-27T21:41:19.560Z,0.00
2022-12-27T21:43:48.081Z,-0.06
2022-12-27T21:46:18.132Z,-0.14
2022-12-27T21:48:45.720Z,-0.10
2022-12-27T21:51:15.701Z,-0.03
2022-12-27T21:53:43.733Z,-0.04
2022-12-27T21:56:12.729Z,0.09
2022-12-27T21:58:40.665Z,0.10
2022-12-27T22:01:11.408Z,0.07
2022-12-27T22:03:41.171Z,-0.01
2022-12-27T22:06:24.098Z,0.07
2022-12-27T22:08:53.311Z,-0.01
2022-12-27T22:11:21.957Z,-0.06
2022-12-27T22:13:49.380Z,-0.05
2022-12-27T22:16:22.537Z,0.01
2022-12-27T22:18:50.482Z,0.09
2022-12-27T22:21:21.107Z,0.09
2022-12-27T22:23:51.881Z,-0.01
2022-12-27T22:26:25.416Z,-0.09
2022-12-27T22:28:52.822Z,0.06
2022-12-27T22:31:26.654Z,0.06
2022-12-27T22:33:53.919Z,0.16
2022-12-27T22:36:25.607Z,0.12
2022-12-27T22:38:55.403Z,0.17
2022-12-27T22:41:26.265Z,0.18
2022-12-27T22:43:59.197Z,0.26
2022-12-27T22:46:27.682Z,0.11
2022-12-27T22:49:00.682Z,0.28
2022-12-27T22:51:30.794Z,0.23
2022-12-27T22:53:59.002Z,0.31
2022-12-27T22:56:29.952Z,0.30
2022-12-27T22:58:57.381Z,0.31
2022-12-27T23:01:28.037Z,0.28
2022-12-27T23:04:02.687Z,0.38
2022-12-27T23:06:31.665Z,0.31
2022-12-27T23:08:58.835Z,0.24
2022-12-27T23:11:34.426Z,0.33
2022-12-27T23:14:09.982Z,0.37
2022-12-27T23:16:42.159Z,0.32
2022-12-27T23:19:09.820Z,0.35
2022-12-27T23:21:36.871Z,0.39
2022-12-27T23:24:04.800Z,0.29
2022-12-27T23:26:31.847Z,0.36
2022-12-27T23:28:59.240Z,0.40
2022-12-27T23:31:27.295Z,0.30
2022-12-27T23:33:54.867Z,0.22
2022-12-27T23:36:22.354Z,0.22
2022-12-27T23:38:50.153Z,0.23
2022-12-27T23:41:22.499Z,0.36
2022-12-27T23:43:53.390Z,0.27
2022-12-27T23:46:29.842Z,0.25
2022-12-27T23:48:58.422Z,0.42
2022-12-27T23:51:25.941Z,0.41
2022-12-27T23:53:53.401Z,0.24
2022-12-27T23:56:28.916Z,0.36
2022-12-27T23:58:57.743Z,0.44
